Time;durP1;ratioP1;P1;durP2;ratioP2;P2;SDS_P1;SDS_P2;PMS_P1;PMS_P2;Temp;Humidity;BMP_temperature;BMP_pressure;BME280_temperature;BME280_humidity;BME280_pressure;Samples;Min_cycle;Max_cycle;Signal;HPM_P1;HPM_P2
2023/12/27 00:01:44;;;;;;;7.90;5.50;;;;;;;7.38;55.48;95213.47;4990447;28;20218;-76
2023/12/27 00:04:09;;;;;;;11.03;6.27;;;;;;;7.49;55.18;95229.09;4987090;28;20195;-75
2023/12/27 00:06:35;;;;;;;9.93;6.30;;;;;;;7.44;55.08;95220.81;4988940;28;20231;-75
2023/12/27 00:09:00;;;;;;;11.10;5.93;;;;;;;7.49;55.11;95236.13;4984094;28;20241;-75
2023/12/27 00:11:26;;;;;;;9.83;5.97;;;;;;;7.47;55.04;95231.00;4986000;28;20218;-75
2023/12/27 00:13:51;;;;;;;9.03;5.77;;;;;;;7.48;55.06;95231.84;4991574;28;20318;-74
2023/12/27 00:16:17;;;;;;;10.87;5.90;;;;;;;7.48;54.89;95243.16;4991416;28;20292;-75
2023/12/27 00:18:43;;;;;;;9.93;6.53;;;;;;;7.45;55.20;95240.75;4989425;28;20245;-75
2023/12/27 00:21:08;;;;;;;10.80;6.80;;;;;;;7.46;55.18;95246.84;4982720;28;20281;-74
2023/12/27 00:23:34;;;;;;;11.73;6.40;;;;;;;7.40;55.03;95240.31;4989040;28;20219;-76
2023/12/27 00:25:59;;;;;;;12.83;6.83;;;;;;;7.36;55.16;95252.00;4988844;28;20361;-75
2023/12/27 00:28:25;;;;;;;10.73;7.20;;;;;;;7.36;55.21;95252.00;4976777;28;20231;-75
2023/12/27 00:30:51;;;;;;;10.43;7.10;;;;;;;7.40;55.25;95261.25;4976834;28;20184;-75
2023/12/27 00:33:17;;;;;;;13.37;8.57;;;;;;;7.40;55.04;95263.84;4992415;28;20229;-74
2023/12/27 00:35:42;;;;;;;13.20;8.07;;;;;;;7.33;55.40;95261.91;4983178;28;20219;-75
2023/12/27 00:38:08;;;;;;;13.07;8.60;;;;;;;7.44;55.39;95269.69;4988106;28;20231;-75
2023/12/27 00:40:33;;;;;;;14.33;8.90;;;;;;;7.35;55.31;95273.03;4982556;28;20223;-75
2023/12/27 00:42:59;;;;;;;11.57;8.40;;;;;;;7.33;55.36;95267.97;4984026;28;20191;-75
2023/12/27 00:45:24;;;;;;;12.13;8.73;;;;;;;7.28;55.27;95268.31;4992050;28;20254;-76
2023/12/27 00:47:50;;;;;;;13.77;9.50;;;;;;;7.21;55.68;95271.56;4983932;28;20221;-75
2023/12/27 00:50:16;;;;;;;11.47;8.77;;;;;;;7.20;55.79;95270.75;4991507;28;20310;-75
2023/12/27 00:52:41;;;;;;;13.53;8.93;;;;;;;7.18;55.64;95274.44;4983360;28;20231;-75
2023/12/27 00:55:07;;;;;;;12.97;9.17;;;;;;;7.11;55.75;95284.56;4982593;28;20214;-74
2023/12/27 00:57:33;;;;;;;12.60;9.00;;;;;;;7.02;56.20;95280.88;4975756;28;20202;-74
2023/12/27 00:59:59;;;;;;;13.23;9.20;;;;;;;7.03;56.03;95282.56;4977557;28;20219;-75
2023/12/27 01:02:25;;;;;;;11.13;8.57;;;;;;;7.09;56.14;95296.09;4970864;28;20238;-75
2023/12/27 01:04:52;;;;;;;13.43;9.47;;;;;;;7.10;55.98;95289.91;4975459;28;20228;-74
2023/12/27 01:07:20;;;;;;;14.00;9.73;;;;;;;7.01;56.09;95288.88;4977847;28;20239;-75
2023/12/27 01:09:46;;;;;;;16.33;9.77;;;;;;;6.95;56.29;95289.34;4984707;28;20271;-73
2023/12/27 01:12:11;;;;;;;12.00;9.53;;;;;;;7.02;56.19;95290.53;4988681;28;20265;-75
2023/12/27 01:14:37;;;;;;;12.47;8.70;;;;;;;6.92;56.31;95293.03;4986449;28;20231;-74
2023/12/27 01:17:02;;;;;;;12.17;8.03;;;;;;;6.88;57.02;95296.88;4976216;28;20242;-74
2023/12/27 01:19:28;;;;;;;11.07;8.50;;;;;;;6.94;56.54;95287.69;4963685;28;20223;-75
2023/12/27 01:21:53;;;;;;;13.77;8.73;;;;;;;6.92;56.60;95285.19;4973749;28;20183;-75
2023/12/27 01:24:18;;;;;;;12.67;9.00;;;;;;;6.93;56.30;95289.50;4961378;28;20295;-75
2023/12/27 01:26:44;;;;;;;13.43;8.73;;;;;;;6.86;56.80;95301.38;4979036;28;20281;-76
2023/12/27 01:29:09;;;;;;;12.53;8.77;;;;;;;6.96;56.72;95291.03;4985853;28;20273;-75
2023/12/27 01:31:35;;;;;;;11.27;8.80;;;;;;;6.94;56.59;95287.69;4986989;28;20355;-75
2023/12/27 01:34:00;;;;;;;13.07;8.40;;;;;;;6.90;56.80;95281.91;4986209;28;20257;-74
2023/12/27 01:36:25;;;;;;;11.43;7.60;;;;;;;6.91;56.78;95286.16;4988179;28;20183;-74
2023/12/27 01:38:51;;;;;;;11.83;7.83;;;;;;;6.94;56.78;95296.38;4985730;28;20306;-74
2023/12/27 01:41:16;;;;;;;12.33;8.20;;;;;;;6.98;56.81;95302.19;4987622;28;20247;-74
2023/12/27 01:43:42;;;;;;;13.70;8.30;;;;;;;6.89;57.11;95292.47;4989869;28;20310;-74
2023/12/27 01:46:08;;;;;;;11.53;8.90;;;;;;;6.90;57.36;95296.75;4987255;28;20183;-75
2023/12/27 01:48:35;;;;;;;11.90;8.17;;;;;;;6.89;57.23;95298.50;4983191;28;20210;-75
2023/12/27 01:51:01;;;;;;;12.87;8.30;;;;;;;6.71;57.48;95297.34;4983666;28;20283;-74
2023/12/27 01:53:27;;;;;;;10.80;8.17;;;;;;;6.62;57.87;95307.59;4994413;28;20302;-75
2023/12/27 01:55:54;;;;;;;11.90;8.47;;;;;;;6.69;57.92;95333.25;4985838;28;20222;-74
2023/12/27 01:58:19;;;;;;;11.20;8.10;;;;;;;6.78;57.51;95325.50;4996493;28;20258;-75
2023/12/27 02:00:47;;;;;;;13.20;8.40;;;;;;;6.71;57.76;95313.03;4985968;28;20190;-76
2023/12/27 02:03:12;;;;;;;12.40;7.97;;;;;;;6.65;57.91;95319.56;4991083;28;20290;-75
2023/12/27 02:05:39;;;;;;;11.70;8.37;;;;;;;6.70;57.75;95322.66;4976644;28;20215;-75
2023/12/27 02:08:08;;;;;;;10.40;7.63;;;;;;;6.55;58.02;95324.72;4992242;28;20239;-75
2023/12/27 02:10:34;;;;;;;11.67;8.10;;;;;;;6.59;58.01;95314.84;4981568;28;20262;-74
2023/12/27 02:13:07;;;;;;;12.87;8.43;;;;;;;6.56;58.18;95315.91;4957594;28;20207;-74
2023/12/27 02:15:33;;;;;;;12.63;8.17;;;;;;;6.55;58.47;95316.88;4984798;28;20179;-75
2023/12/27 02:18:00;;;;;;;10.47;7.40;;;;;;;6.55;58.81;95324.72;4993341;28;20229;-75
2023/12/27 02:20:25;;;;;;;11.17;6.80;;;;;;;6.73;59.76;95322.41;4985629;28;20294;-75
2023/12/27 02:22:53;;;;;;;8.67;6.23;;;;;;;6.86;59.62;95306.59;4988099;28;20261;-75
2023/12/27 02:25:19;;;;;;;7.57;4.37;;;;;;;7.03;62.01;95316.56;4987752;28;20342;-75
2023/12/27 02:27:45;;;;;;;6.47;3.73;;;;;;;7.19;61.77;95320.53;4995805;28;20179;-75
2023/12/27 02:30:21;;;;;;;8.50;5.73;;;;;;;7.25;60.71;95322.69;4995563;28;20227;-76
2023/12/27 02:32:47;;;;;;;6.73;4.57;;;;;;;7.35;60.94;95315.75;4975500;28;20239;-76
2023/12/27 02:35:12;;;;;;;6.47;4.77;;;;;;;7.48;60.42;95321.66;4978738;28;20268;-74
2023/12/27 02:37:38;;;;;;;9.07;5.13;;;;;;;7.42;59.91;95310.84;4993766;28;20253;-75
2023/12/27 02:40:04;;;;;;;6.30;3.90;;;;;;;7.49;61.56;95310.22;4994469;28;20222;-75
2023/12/27 02:42:30;;;;;;;8.20;4.37;;;;;;;7.64;61.48;95322.97;4999266;28;20238;-74
2023/12/27 02:44:55;;;;;;;12.73;4.87;;;;;;;7.72;61.55;95324.03;4988876;28;20222;-76
2023/12/27 02:47:21;;;;;;;6.97;3.97;;;;;;;7.74;61.81;95313.41;4982368;28;20228;-75
2023/12/27 02:49:46;;;;;;;8.73;4.50;;;;;;;7.84;61.91;95318.75;4975943;28;20223;-74
2023/12/27 02:52:12;;;;;;;6.47;3.20;;;;;;;7.99;61.52;95332.31;4989882;28;20196;-75
2023/12/27 02:54:37;;;;;;;8.37;4.13;;;;;;;8.06;60.85;95323.81;4993474;28;20217;-73
2023/12/27 02:57:03;;;;;;;8.67;4.47;;;;;;;8.15;61.25;95322.22;4985823;28;20246;-75
2023/12/27 02:59:28;;;;;;;6.30;3.53;;;;;;;8.14;61.24;95329.25;4992630;28;20355;-75
2023/12/27 03:01:54;;;;;;;6.23;3.03;;;;;;;8.15;61.16;95324.84;4997545;28;20229;-75
2023/12/27 03:04:19;;;;;;;8.03;3.80;;;;;;;8.20;61.36;95327.06;4984914;28;20216;-75
2023/12/27 03:06:44;;;;;;;5.50;3.40;;;;;;;8.28;60.70;95327.25;4966172;28;20240;-76
2023/12/27 03:09:10;;;;;;;7.43;4.17;;;;;;;8.28;60.71;95328.06;4980988;28;20252;-75
2023/12/27 03:11:35;;;;;;;7.97;3.93;;;;;;;8.32;60.64;95333.91;4996164;28;20224;-75
2023/12/27 03:14:01;;;;;;;7.17;4.20;;;;;;;8.34;60.80;95337.19;4982447;28;20262;-75
2023/12/27 03:16:28;;;;;;;7.17;4.00;;;;;;;8.36;60.87;95343.97;4978427;28;20269;-75
2023/12/27 03:18:54;;;;;;;9.43;4.20;;;;;;;8.48;60.71;95349.19;4981168;28;20195;-75
2023/12/27 03:21:19;;;;;;;7.93;3.87;;;;;;;8.49;60.58;95349.03;4984646;28;20228;-75
2023/12/27 03:23:45;;;;;;;4.63;3.20;;;;;;;8.48;60.49;95346.56;4990379;28;20229;-76
2023/12/27 03:26:11;;;;;;;6.20;3.77;;;;;;;8.49;60.55;95353.47;4979919;28;20389;-74
2023/12/27 03:28:36;;;;;;;6.93;3.73;;;;;;;8.52;60.44;95359.25;4987674;28;20330;-75
2023/12/27 03:31:01;;;;;;;5.80;3.50;;;;;;;8.51;60.63;95354.16;4986794;28;20253;-76
2023/12/27 03:33:27;;;;;;;6.07;4.13;;;;;;;8.53;60.62;95360.13;4984055;28;20219;-75
2023/12/27 03:35:52;;;;;;;8.17;3.97;;;;;;;8.54;60.58;95353.91;4994403;28;20223;-74
2023/12/27 03:38:18;;;;;;;6.90;3.77;;;;;;;8.54;60.48;95359.16;4989921;28;20235;-75
2023/12/27 03:40:43;;;;;;;7.27;3.47;;;;;;;8.55;60.37;95358.16;4976252;28;20233;-75
2023/12/27 03:43:09;;;;;;;8.40;3.77;;;;;;;8.56;60.50;95368.53;4985397;28;20187;-76
2023/12/27 03:45:35;;;;;;;5.77;3.57;;;;;;;8.61;60.53;95365.53;4989390;28;20186;-75
2023/12/27 03:48:01;;;;;;;7.27;3.80;;;;;;;8.57;60.47;95364.13;4978546;28;20279;-73
2023/12/27 03:50:26;;;;;;;6.60;3.60;;;;;;;8.52;60.59;95351.41;4988981;28;20231;-75
2023/12/27 03:52:51;;;;;;;7.80;4.00;;;;;;;8.54;60.62;95359.16;4985432;28;20236;-75
2023/12/27 03:55:17;;;;;;;7.10;3.87;;;;;;;8.66;60.70;95358.09;4989438;28;20223;-75
2023/12/27 03:57:42;;;;;;;7.87;4.37;;;;;;;8.61;60.54;95347.19;4990819;28;20279;-75
2023/12/27 04:00:10;;;;;;;7.43;4.07;;;;;;;8.60;60.49;95354.19;4988886;28;20251;-75
2023/12/27 04:02:35;;;;;;;9.30;4.30;;;;;;;8.54;61.05;95359.16;4966284;28;20227;-75
2023/12/27 04:05:01;;;;;;;6.83;4.07;;;;;;;8.58;60.80;95371.00;4976323;28;20304;-75
2023/12/27 04:07:26;;;;;;;7.07;4.03;;;;;;;8.60;60.79;95369.09;4986876;28;20231;-74
2023/12/27 04:09:52;;;;;;;7.13;4.10;;;;;;;8.56;60.98;95362.47;4982359;28;20211;-75
2023/12/27 04:12:17;;;;;;;8.03;4.10;;;;;;;8.56;61.05;95367.72;4987402;28;20223;-75
2023/12/27 04:14:43;;;;;;;8.47;3.83;;;;;;;8.64;60.98;95382.78;4973591;28;20227;-75
2023/12/27 04:17:08;;;;;;;8.93;4.23;;;;;;;8.69;60.88;95378.00;4966347;28;20264;-75
2023/12/27 04:19:34;;;;;;;8.97;4.10;;;;;;;8.69;60.82;95367.50;4962799;28;20251;-75
2023/12/27 04:21:59;;;;;;;5.83;3.67;;;;;;;8.64;61.13;95381.00;4962758;28;20275;-74
2023/12/27 04:24:25;;;;;;;9.73;4.00;;;;;;;8.68;61.08;95392.03;4962174;28;20208;-75
2023/12/27 04:26:50;;;;;;;6.67;4.00;;;;;;;8.74;61.09;95396.75;4969111;28;20220;-75
2023/12/27 04:29:16;;;;;;;6.87;3.67;;;;;;;8.79;60.89;95403.28;4963456;28;20232;-76
2023/12/27 04:31:41;;;;;;;8.23;4.10;;;;;;;8.84;60.58;95411.56;4964407;28;20223;-75
2023/12/27 04:34:07;;;;;;;9.33;4.27;;;;;;;8.84;60.70;95401.06;4963100;28;20267;-75
2023/12/27 04:36:32;;;;;;;7.90;3.87;;;;;;;8.83;60.91;95402.03;4964333;28;20198;-75
2023/12/27 04:38:58;;;;;;;9.87;3.73;;;;;;;8.83;60.91;95412.53;4967099;28;20228;-75
2023/12/27 04:41:23;;;;;;;10.27;4.10;;;;;;;8.77;60.87;95404.38;4982299;28;20233;-75
2023/12/27 04:43:49;;;;;;;6.53;3.43;;;;;;;8.91;61.07;95413.69;4971232;28;20251;-75
2023/12/27 04:46:14;;;;;;;7.00;3.77;;;;;;;8.83;60.69;95402.03;4963494;28;20251;-76
2023/12/27 04:48:40;;;;;;;9.23;3.80;;;;;;;8.91;60.74;95413.69;4982193;28;20191;-74
2023/12/27 04:51:05;;;;;;;8.57;4.20;;;;;;;8.80;60.83;95404.94;4985250;28;20224;-75
2023/12/27 04:53:31;;;;;;;9.87;4.27;;;;;;;8.72;61.36;95404.75;4982833;28;20292;-75
2023/12/27 04:55:56;;;;;;;9.00;4.23;;;;;;;8.76;61.23;95410.56;4971424;28;20224;-75
2023/12/27 04:58:21;;;;;;;8.67;3.97;;;;;;;8.80;61.46;95412.81;4968242;28;20315;-74
2023/12/27 05:00:47;;;;;;;6.57;3.60;;;;;;;8.84;61.23;95410.75;4983697;28;20216;-75
2023/12/27 05:03:12;;;;;;;8.90;4.20;;;;;;;8.86;61.26;95419.31;4982846;28;20227;-75
2023/12/27 05:05:39;;;;;;;6.60;3.87;;;;;;;8.81;61.54;95414.44;4985140;28;20299;-76
2023/12/27 05:08:05;;;;;;;7.53;4.17;;;;;;;8.79;61.49;95415.53;4985153;28;20254;-76
2023/12/27 05:10:30;;;;;;;9.90;4.37;;;;;;;8.83;61.41;95420.41;4988428;28;20258;-74
2023/12/27 05:12:56;;;;;;;7.37;4.27;;;;;;;8.86;61.27;95432.44;4989243;28;20187;-76
2023/12/27 05:15:21;;;;;;;7.80;4.30;;;;;;;8.78;61.34;95427.00;4980175;28;20175;-75
2023/12/27 05:17:47;;;;;;;5.93;3.60;;;;;;;8.76;61.80;95427.13;4983740;28;20273;-75
2023/12/27 05:20:13;;;;;;;6.50;3.70;;;;;;;8.71;62.11;95431.91;4973721;28;20232;-75
2023/12/27 05:22:40;;;;;;;5.57;3.50;;;;;;;8.74;62.22;95428.22;4973664;28;20272;-75
2023/12/27 05:25:08;;;;;;;7.00;3.53;;;;;;;8.74;61.92;95439.56;4965075;28;20211;-75
2023/12/27 05:27:33;;;;;;;9.53;3.83;;;;;;;8.86;61.72;95449.97;4984190;28;20199;-74
2023/12/27 05:29:59;;;;;;;7.53;4.03;;;;;;;8.77;61.81;95436.66;4982960;28;20231;-74
2023/12/27 05:32:25;;;;;;;7.77;3.70;;;;;;;8.78;61.77;95448.81;4982098;28;20239;-75
2023/12/27 05:34:52;;;;;;;6.57;3.80;;;;;;;8.72;62.36;95449.34;4984875;28;20259;-76
2023/12/27 05:37:18;;;;;;;6.43;3.73;;;;;;;8.83;62.06;95454.50;4979041;28;20228;-75
2023/12/27 05:39:43;;;;;;;6.30;3.83;;;;;;;8.81;62.25;95460.81;4975148;28;20194;-76
2023/12/27 05:42:09;;;;;;;4.90;3.30;;;;;;;8.72;62.12;95451.94;4988316;28;20216;-75
2023/12/27 05:44:35;;;;;;;7.17;3.87;;;;;;;8.83;62.22;95461.53;4981041;28;20300;-76
2023/12/27 05:47:02;;;;;;;8.53;3.90;;;;;;;8.81;62.40;95460.81;4986860;28;20220;-75
2023/12/27 05:49:27;;;;;;;7.60;3.60;;;;;;;8.81;62.23;95472.13;4982555;28;20297;-74
2023/12/27 05:51:53;;;;;;;6.00;3.20;;;;;;;8.75;62.43;95474.47;4979915;28;20192;-75
2023/12/27 05:54:18;;;;;;;6.07;3.73;;;;;;;8.71;62.51;95475.66;4977504;28;20230;-75
2023/12/27 05:56:44;;;;;;;4.80;3.17;;;;;;;8.79;62.36;95488.97;4981968;28;20223;-75
2023/12/27 05:59:09;;;;;;;6.00;3.50;;;;;;;8.87;62.53;95490.94;4977507;28;20224;-75
2023/12/27 06:01:35;;;;;;;6.87;3.83;;;;;;;8.89;62.43;95502.13;4983025;28;20223;-75
2023/12/27 06:04:03;;;;;;;8.57;3.60;;;;;;;8.84;62.42;95503.34;4980064;28;20277;-76
2023/12/27 06:06:32;;;;;;;7.53;3.97;;;;;;;8.88;62.57;95516.22;4976640;28;20236;-76
2023/12/27 06:08:57;;;;;;;8.10;3.87;;;;;;;8.83;62.46;95514.81;4979840;28;20315;-76
2023/12/27 06:11:23;;;;;;;7.27;3.80;;;;;;;8.93;62.12;95511.44;4987097;28;20320;-76
2023/12/27 06:13:49;;;;;;;5.67;3.73;;;;;;;8.86;62.44;95521.59;4985507;28;20232;-74
2023/12/27 06:16:15;;;;;;;6.33;3.63;;;;;;;8.93;62.31;95521.91;4983622;28;20243;-76
2023/12/27 06:18:40;;;;;;;5.83;3.93;;;;;;;8.92;62.57;95530.72;4979539;28;20200;-75
2023/12/27 06:21:06;;;;;;;9.87;4.57;;;;;;;8.92;62.42;95521.06;4984580;28;20230;-76
2023/12/27 06:23:31;;;;;;;9.50;4.30;;;;;;;8.96;62.64;95526.91;4978109;28;20224;-76
2023/12/27 06:25:57;;;;;;;6.57;4.23;;;;;;;8.97;61.99;95516.25;4984186;28;20220;-76
2023/12/27 06:28:22;;;;;;;5.93;4.30;;;;;;;8.99;62.42;95521.38;4983073;28;20303;-75
2023/12/27 06:30:48;;;;;;;5.50;3.60;;;;;;;9.02;62.39;95513.25;4987458;28;20267;-75
2023/12/27 06:33:13;;;;;;;6.90;3.50;;;;;;;8.95;62.44;95519.97;4984229;28;20230;-76
2023/12/27 06:35:39;;;;;;;7.20;3.90;;;;;;;8.96;62.34;95516.41;4981891;28;20221;-75
2023/12/27 06:38:04;;;;;;;6.13;4.33;;;;;;;9.07;62.27;95518.94;4985059;28;20228;-76
2023/12/27 06:40:29;;;;;;;7.83;4.90;;;;;;;9.12;62.05;95523.81;4993208;28;20224;-75
2023/12/27 06:42:55;;;;;;;6.03;3.83;;;;;;;9.04;62.28;95527.09;4987370;28;20319;-77
2023/12/27 06:45:21;;;;;;;6.17;3.90;;;;;;;9.12;61.91;95526.44;4995797;28;20179;-76
2023/12/27 06:47:46;;;;;;;12.23;4.53;;;;;;;9.14;61.96;95533.22;4989581;28;20223;-76
2023/12/27 06:50:12;;;;;;;7.83;4.03;;;;;;;9.27;61.68;95540.84;4989094;28;20220;-75
2023/12/27 06:52:37;;;;;;;6.63;4.17;;;;;;;9.26;61.40;95536.56;4986301;28;20238;-76
2023/12/27 06:55:03;;;;;;;8.17;4.70;;;;;;;9.21;61.71;95528.25;4985556;28;20212;-76
2023/12/27 06:57:29;;;;;;;6.20;3.87;;;;;;;9.35;61.38;95542.81;4979580;28;20211;-75
2023/12/27 06:59:54;;;;;;;6.97;4.40;;;;;;;9.48;61.26;95557.38;4981295;28;20224;-74
2023/12/27 07:02:19;;;;;;;5.93;3.67;;;;;;;9.45;61.15;95560.28;4976830;28;20228;-75
2023/12/27 07:04:45;;;;;;;6.63;3.80;;;;;;;9.51;60.98;95566.78;4969933;28;20759;-74
2023/12/27 07:07:11;;;;;;;7.80;4.50;;;;;;;9.63;60.64;95565.75;4988604;28;20231;-75
2023/12/27 07:09:36;;;;;;;7.80;4.83;;;;;;;9.77;60.25;95569.81;4969129;28;20203;-76
2023/12/27 07:12:02;;;;;;;10.30;4.70;;;;;;;9.72;59.92;95574.63;4986797;28;20307;-75
2023/12/27 07:14:27;;;;;;;9.53;4.40;;;;;;;9.77;60.11;95579.47;4980675;28;20232;-75
2023/12/27 07:16:53;;;;;;;7.43;4.50;;;;;;;9.80;59.93;95587.91;4980027;28;20263;-76
2023/12/27 07:19:19;;;;;;;7.40;4.73;;;;;;;9.94;59.88;95603.31;4974575;28;20275;-75
2023/12/27 07:21:44;;;;;;;9.17;5.33;;;;;;;9.95;59.64;95614.66;4963569;28;20199;-75
2023/12/27 07:24:09;;;;;;;8.23;4.93;;;;;;;9.91;59.63;95613.25;4969933;28;20222;-75
2023/12/27 07:26:35;;;;;;;8.20;5.13;;;;;;;10.02;59.41;95623.66;4964775;28;20248;-76
2023/12/27 07:29:00;;;;;;;10.30;5.50;;;;;;;10.00;59.35;95617.72;4970510;28;20228;-75
2023/12/27 07:31:26;;;;;;;8.73;5.20;;;;;;;10.06;59.13;95618.97;4983897;28;20291;-74
2023/12/27 07:33:51;;;;;;;10.17;5.43;;;;;;;10.21;58.52;95637.81;4984514;28;20211;-75
2023/12/27 07:36:17;;;;;;;9.10;5.53;;;;;;;10.10;58.83;95636.97;4985065;28;20243;-78
2023/12/27 07:38:42;;;;;;;7.33;5.37;;;;;;;10.15;58.72;95619.00;4990155;28;20316;-77
2023/12/27 07:41:08;;;;;;;9.57;6.00;;;;;;;10.30;58.24;95618.66;4983251;28;20224;-76
2023/12/27 07:43:35;;;;;;;11.07;6.27;;;;;;;10.30;58.06;95632.63;4988718;28;20228;-76
2023/12/27 07:46:01;;;;;;;8.27;5.40;;;;;;;10.34;57.91;95620.03;4985278;28;20192;-75
2023/12/27 07:48:27;;;;;;;6.67;4.97;;;;;;;10.26;57.80;95618.03;4969110;28;20218;-76
2023/12/27 07:50:52;;;;;;;7.40;4.27;;;;;;;10.34;57.90;95620.91;4967089;28;20225;-76
2023/12/27 07:53:18;;;;;;;7.23;4.07;;;;;;;10.29;58.10;95614.34;4973993;28;20239;-76
2023/12/27 07:55:43;;;;;;;8.57;4.45;;;;;;;10.30;58.06;95630.00;4984879;28;20233;-76
2023/12/27 07:58:09;;;;;;;9.73;4.73;;;;;;;10.35;57.89;95627.81;4979367;28;20199;-75
2023/12/27 08:00:35;;;;;;;8.13;5.00;;;;;;;10.45;57.40;95634.84;4982462;28;20186;-75
2023/12/27 08:03:03;;;;;;;9.03;4.57;;;;;;;10.51;57.63;95655.38;4985637;28;20220;-75
2023/12/27 08:05:28;;;;;;;7.50;4.50;;;;;;;10.59;57.17;95640.56;4988820;28;20226;-76
2023/12/27 08:07:54;;;;;;;6.40;4.27;;;;;;;10.50;57.29;95646.63;4996325;28;20243;-75
2023/12/27 08:10:19;;;;;;;7.30;4.57;;;;;;;10.62;56.93;95641.28;4998509;28;20230;-75
2023/12/27 08:12:46;;;;;;;7.30;4.23;;;;;;;10.76;56.57;95646.13;4978080;28;20191;-76
2023/12/27 08:15:11;;;;;;;7.07;3.97;;;;;;;10.87;56.07;95650.41;4981969;28;20240;-76
2023/12/27 08:17:37;;;;;;;8.00;4.33;;;;;;;10.76;56.58;95652.22;4982092;28;20223;-75
2023/12/27 08:20:04;;;;;;;10.97;4.93;;;;;;;10.79;56.73;95662.44;4981465;28;20224;-76
2023/12/27 08:22:30;;;;;;;4.80;3.50;;;;;;;10.84;56.52;95663.84;4982635;28;20250;-76
2023/12/27 08:24:56;;;;;;;10.07;4.40;;;;;;;10.80;56.11;95665.94;4984959;28;20184;-76
2023/12/27 08:27:21;;;;;;;7.60;4.32;;;;;;;10.80;56.57;95668.56;4987113;28;20179;-75
2023/12/27 08:29:47;;;;;;;7.47;4.70;;;;;;;10.88;56.33;95665.22;4983848;28;20235;-76
2023/12/27 08:32:12;;;;;;;7.83;4.73;;;;;;;11.11;55.96;95665.78;4989874;28;20223;-77
2023/12/27 08:34:38;;;;;;;9.40;4.90;;;;;;;11.11;55.72;95665.78;4982749;28;20244;-77
2023/12/27 08:37:03;;;;;;;9.60;5.57;;;;;;;11.17;55.44;95666.09;4980628;28;20206;-76
2023/12/27 08:39:29;;;;;;;8.60;5.35;;;;;;;11.30;55.15;95670.22;4986474;28;20251;-76
2023/12/27 08:41:54;;;;;;;7.57;5.20;;;;;;;11.31;55.16;95677.16;4962442;28;20231;-76
2023/12/27 08:44:20;;;;;;;6.70;4.70;;;;;;;11.32;55.01;95684.06;4977957;28;20216;-77
2023/12/27 08:46:45;;;;;;;11.07;5.17;;;;;;;11.34;54.92;95679.50;4983170;28;20227;-76
2023/12/27 08:49:10;;;;;;;8.35;4.95;;;;;;;11.25;55.32;95691.69;4982583;28;20192;-75
2023/12/27 08:51:37;;;;;;;6.97;4.78;;;;;;;11.27;55.20;95695.03;4986081;28;20207;-75
2023/12/27 08:54:03;;;;;;;7.43;4.95;;;;;;;11.29;55.11;95703.63;4984862;28;20227;-76
2023/12/27 08:56:29;;;;;;;9.27;5.43;;;;;;;11.33;55.19;95704.97;4984787;28;20226;-76
2023/12/27 08:58:54;;;;;;;8.00;5.50;;;;;;;11.24;55.20;95687.41;4981832;28;20280;-76
2023/12/27 09:01:20;;;;;;;10.25;5.45;;;;;;;11.39;54.73;95699.19;4986398;28;20223;-75
2023/12/27 09:03:45;;;;;;;6.28;5.07;;;;;;;11.32;54.97;95686.72;4989985;28;20198;-76
2023/12/27 09:06:11;;;;;;;10.35;5.32;;;;;;;11.54;54.54;95693.47;4963896;28;20244;-75
2023/12/27 09:08:37;;;;;;;10.15;5.32;;;;;;;11.53;54.71;95697.09;4974596;28;20223;-76
2023/12/27 09:11:05;;;;;;;9.77;5.30;;;;;;;11.64;54.05;95702.19;4977367;28;20223;-76
2023/12/27 09:13:31;;;;;;;10.73;5.03;;;;;;;11.75;54.00;95703.84;4989756;28;20226;-76
2023/12/27 09:15:56;;;;;;;10.02;5.25;;;;;;;11.80;53.52;95694.53;4976712;28;20188;-75
2023/12/27 09:18:22;;;;;;;8.63;4.77;;;;;;;11.76;53.51;95685.25;4983052;28;20192;-75
2023/12/27 09:20:47;;;;;;;8.40;4.72;;;;;;;11.89;53.55;95685.81;4983617;28;20273;-77
2023/12/27 09:23:13;;;;;;;7.70;4.65;;;;;;;11.90;53.38;95673.47;4978297;28;20227;-79
2023/12/27 09:25:39;;;;;;;5.53;4.07;;;;;;;11.88;53.13;95670.13;4981249;28;20278;-75
2023/12/27 09:28:05;;;;;;;6.20;3.93;;;;;;;12.02;52.76;95666.19;4979232;28;20196;-76
2023/12/27 09:30:30;;;;;;;7.68;4.50;;;;;;;11.95;52.79;95668.59;4987733;28;20238;-77
2023/12/27 09:32:56;;;;;;;6.43;4.15;;;;;;;12.13;52.66;95664.22;4984889;28;20223;-76
2023/12/27 09:35:21;;;;;;;6.70;4.13;;;;;;;12.16;52.41;95673.63;4980124;28;20243;-76
2023/12/27 09:37:47;;;;;;;5.93;3.72;;;;;;;12.21;52.20;95663.47;4981330;28;20227;-77
2023/12/27 09:40:12;;;;;;;9.45;4.35;;;;;;;12.26;52.27;95655.13;4983482;28;20269;-76
2023/12/27 09:42:40;;;;;;;7.07;4.22;;;;;;;12.25;52.07;95646.41;4982612;28;20191;-77
2023/12/27 09:45:08;;;;;;;7.50;4.25;;;;;;;12.30;52.06;95653.88;4980085;28;20227;-76
2023/12/27 09:47:35;;;;;;;8.20;4.70;;;;;;;12.25;52.05;95643.75;4980507;28;20224;-76
2023/12/27 09:50:01;;;;;;;9.80;4.45;;;;;;;12.19;52.59;95633.81;4978579;28;20243;-77
2023/12/27 09:52:29;;;;;;;7.68;4.20;;;;;;;12.39;51.93;95631.88;4967053;28;20227;-77
2023/12/27 09:54:54;;;;;;;7.93;4.00;;;;;;;12.41;51.66;95635.22;4986903;28;20216;-77
2023/12/27 09:57:22;;;;;;;8.35;4.88;;;;;;;12.48;51.80;95636.28;4979365;28;20196;-76
2023/12/27 09:59:51;;;;;;;6.00;4.40;;;;;;;12.51;51.73;95637.78;4980190;28;20310;-75
2023/12/27 10:02:19;;;;;;;8.50;4.78;;;;;;;12.55;50.98;95636.50;4983959;28;20234;-76
2023/12/27 10:05:22;;;;;;;6.95;3.83;;;;;;;12.64;50.65;95632.97;4978799;28;20256;-76
2023/12/27 10:07:47;;;;;;;7.47;3.45;;;;;;;12.68;50.76;95638.78;4979449;28;20236;-77
2023/12/27 10:10:14;;;;;;;6.38;3.28;;;;;;;12.71;50.38;95646.41;4979508;28;20671;-77
2023/12/27 10:12:41;;;;;;;7.15;3.40;;;;;;;13.01;49.21;95650.47;4984042;28;20215;-77
2023/12/27 10:15:12;;;;;;;4.97;3.28;;;;;;;12.87;49.68;95649.19;4965555;28;20223;-78
2023/12/27 10:17:37;;;;;;;7.20;3.35;;;;;;;12.81;49.34;95655.09;4977240;28;20212;-77
2023/12/27 10:20:06;;;;;;;4.75;2.70;;;;;;;12.83;49.10;95649.63;4990361;28;20228;-78
2023/12/27 10:22:31;;;;;;;6.75;3.15;;;;;;;12.94;48.91;95649.44;4984610;28;20230;-77
2023/12/27 10:24:57;;;;;;;7.43;3.00;;;;;;;12.98;48.63;95640.22;4987470;28;20235;-76
2023/12/27 10:27:22;;;;;;;5.53;3.13;;;;;;;13.03;48.94;95636.16;4987092;28;20180;-76
2023/12/27 10:29:48;;;;;;;5.22;2.90;;;;;;;13.27;47.98;95637.38;4986473;28;20335;-76
2023/12/27 10:32:16;;;;;;;5.95;3.53;;;;;;;13.31;47.96;95622.91;4994078;28;20224;-76
2023/12/27 10:34:41;;;;;;;8.27;3.40;;;;;;;13.33;48.00;95607.69;4987138;28;20235;-76
2023/12/27 10:37:11;;;;;;;4.60;2.90;;;;;;;13.43;47.83;95604.97;4985022;28;20175;-76
2023/12/27 10:39:43;;;;;;;5.05;3.30;;;;;;;13.43;47.44;95604.97;4990474;28;20192;-77
2023/12/27 10:42:11;;;;;;;4.47;3.13;;;;;;;13.55;47.27;95593.16;4981917;28;20307;-77
2023/12/27 10:44:36;;;;;;;3.70;2.40;;;;;;;13.56;47.40;95605.38;4975178;28;20208;-76
2023/12/27 10:47:06;;;;;;;5.97;3.95;;;;;;;13.50;47.49;95605.16;4975552;28;20216;-77
2023/12/27 10:49:33;;;;;;;6.82;3.60;;;;;;;13.61;46.99;95603.09;4976168;28;20227;-76
2023/12/27 10:51:59;;;;;;;5.47;3.35;;;;;;;13.73;46.75;95601.00;4976359;28;20181;-77
2023/12/27 10:54:26;;;;;;;4.80;3.45;;;;;;;13.96;46.49;95611.88;4986463;28;20223;-77
2023/12/27 10:56:58;;;;;;;4.78;3.65;;;;;;;14.00;46.15;95610.56;4986768;28;20219;-76
2023/12/27 10:59:24;;;;;;;4.97;3.60;;;;;;;14.13;46.12;95607.50;4989337;28;20224;-77
2023/12/27 11:01:50;;;;;;;5.18;3.40;;;;;;;14.02;46.15;95616.53;4986833;28;20293;-76
2023/12/27 11:04:17;;;;;;;4.57;3.00;;;;;;;13.96;46.70;95603.13;4975514;28;20233;-77
2023/12/27 11:06:45;;;;;;;4.97;3.45;;;;;;;13.80;46.12;95612.63;4991620;28;20224;-75
2023/12/27 11:09:13;;;;;;;5.20;3.15;;;;;;;13.75;46.61;95606.16;4985186;28;20226;-76
2023/12/27 11:11:39;;;;;;;8.10;3.08;;;;;;;13.82;46.25;95613.31;4988144;28;20224;-76
2023/12/27 11:14:08;;;;;;;4.60;3.00;;;;;;;13.90;46.02;95617.81;4980872;28;20299;-76
2023/12/27 11:16:35;;;;;;;6.00;3.50;;;;;;;13.74;46.06;95612.41;4983589;28;20287;-75
2023/12/27 11:19:05;;;;;;;6.13;3.08;;;;;;;13.87;46.37;95618.09;4986031;28;20200;-75
2023/12/27 11:21:31;;;;;;;4.70;3.20;;;;;;;13.87;45.86;95626.03;4978982;28;20188;-77
2023/12/27 11:23:57;;;;;;;5.80;3.50;;;;;;;13.94;45.86;95632.34;4972002;28;20312;-76
2023/12/27 11:26:22;;;;;;;4.55;3.20;;;;;;;13.96;45.25;95622.47;4984710;28;20219;-76
2023/12/27 11:28:47;;;;;;;6.10;3.22;;;;;;;14.00;45.50;95625.59;4989996;28;20259;-76
2023/12/27 11:31:13;;;;;;;5.85;3.25;;;;;;;14.07;45.12;95616.06;4987479;28;20176;-75